Time;durP1;ratioP1;P1;durP2;ratioP2;P2;SDS_P1;SDS_P2;PMS_P1;PMS_P2;Temp;Humidity;BMP_temperature;BMP_pressure;BME280_temperature;BME280_humidity;BME280_pressure;Samples;Min_cycle;Max_cycle;Signal;HPM_P1;HPM_P2
2022/08/28 00:01:03;;;;;;;7.30;4.72;;;;;;;19.56;100.00;98116.59;2608940;28;20049;-93
2022/08/28 00:02:19;;;;;;;6.07;4.38;;;;;;;19.56;100.00;98113.06;2607335;28;20053;-94
2022/08/28 00:03:35;;;;;;;6.10;4.75;;;;;;;19.64;100.00;98112.53;2609048;28;20072;-94
2022/08/28 00:04:51;;;;;;;7.82;4.57;;;;;;;19.62;100.00;98107.31;2606625;28;20049;-95
2022/08/28 00:06:06;;;;;;;5.15;4.40;;;;;;;19.62;100.00;98108.19;2608150;28;20547;-94
2022/08/28 00:07:22;;;;;;;6.25;4.43;;;;;;;19.69;100.00;98118.34;2606520;28;20060;-94
2022/08/28 00:08:37;;;;;;;7.03;4.75;;;;;;;19.64;100.00;98109.88;2607730;28;20060;-95
2022/08/28 00:09:53;;;;;;;5.68;4.38;;;;;;;19.70;100.00;98112.94;2606964;28;20065;-94
2022/08/28 00:11:08;;;;;;;6.18;4.65;;;;;;;19.65;100.00;98111.56;2607484;28;20083;-95
2022/08/28 00:12:25;;;;;;;7.80;4.70;;;;;;;19.70;100.00;98112.13;2608147;28;20102;-94
2022/08/28 00:13:41;;;;;;;6.93;4.57;;;;;;;19.70;100.00;98109.47;2607398;28;20059;-94
2022/08/28 00:14:57;;;;;;;6.38;4.90;;;;;;;19.67;100.00;98114.97;2607708;28;20057;-94
2022/08/28 00:16:13;;;;;;;6.20;4.50;;;;;;;19.65;100.00;98108.91;2606565;28;20094;-93
2022/08/28 00:17:28;;;;;;;6.15;4.43;;;;;;;19.56;100.00;98115.72;2608727;28;20053;-95
2022/08/28 00:18:44;;;;;;;7.22;4.25;;;;;;;19.51;100.00;98108.09;2606831;28;20053;-93
2022/08/28 00:20:00;;;;;;;5.30;4.47;;;;;;;19.60;100.00;98111.88;2608447;28;20145;-94
2022/08/28 00:21:15;;;;;;;4.65;4.13;;;;;;;19.57;100.00;98114.78;2607109;28;20087;-93
2022/08/28 00:22:31;;;;;;;6.30;4.18;;;;;;;19.55;100.00;98111.38;2607938;28;20565;-92
2022/08/28 00:23:47;;;;;;;7.28;4.18;;;;;;;19.55;100.00;98106.91;2606935;28;20044;-93
2022/08/28 00:25:05;;;;;;;6.47;3.75;;;;;;;19.54;100.00;98113.16;2607671;28;20522;-94
2022/08/28 00:27:57;;;;;;;8.55;4.25;;;;;;;19.58;100.00;98112.03;2608068;28;20060;-92
2022/08/28 00:29:12;;;;;;;10.30;4.40;;;;;;;19.60;100.00;98107.44;2605434;28;20051;-94
2022/08/28 00:30:32;;;;;;;5.65;4.22;;;;;;;19.56;100.00;98116.59;2607703;28;20415;-92
2022/08/28 00:31:48;;;;;;;6.80;4.35;;;;;;;19.51;100.00;98113.38;2606747;28;20480;-94
2022/08/28 00:33:08;;;;;;;6.40;4.35;;;;;;;19.47;100.00;98112.75;2608128;28;20059;-92
2022/08/28 00:34:24;;;;;;;8.23;4.40;;;;;;;19.44;100.00;98112.13;2606459;28;20498;-93
2022/08/28 00:35:41;;;;;;;5.72;4.07;;;;;;;19.42;100.00;98109.59;2607731;28;20072;-93
2022/08/28 00:36:57;;;;;;;7.00;4.57;;;;;;;19.42;100.00;98108.75;2606029;28;20131;-92
2022/08/28 00:38:13;;;;;;;5.28;4.43;;;;;;;19.46;100.00;98113.72;2607681;28;20048;-94
2022/08/28 00:39:30;;;;;;;7.28;4.20;;;;;;;19.49;100.00;98110.00;2606370;28;20045;-93
2022/08/28 00:40:49;;;;;;;6.25;4.10;;;;;;;19.52;100.00;98117.75;2607616;28;20080;-93
2022/08/28 00:42:05;;;;;;;6.65;4.47;;;;;;;19.54;100.00;98118.47;2605764;28;20045;-92
2022/08/28 00:43:37;;;;;;;5.15;3.97;;;;;;;19.54;100.00;98110.50;2608097;28;20048;-93
2022/08/28 00:44:53;;;;;;;6.15;4.38;;;;;;;19.57;100.00;98112.13;2605888;28;20052;-93
2022/08/28 00:46:21;;;;;;;7.45;4.35;;;;;;;19.61;100.00;98111.78;2607926;28;20052;-93
2022/08/28 00:47:38;;;;;;;6.32;4.43;;;;;;;19.64;100.00;98112.53;2606673;28;20049;-94
2022/08/28 00:48:54;;;;;;;7.15;4.10;;;;;;;19.59;100.00;98111.06;2607635;28;20072;-93
2022/08/28 00:50:18;;;;;;;6.40;4.72;;;;;;;19.60;100.00;98110.09;2606227;28;20049;-93
2022/08/28 00:53:09;;;;;;;7.80;4.20;;;;;;;19.59;100.00;98108.41;2606960;28;20060;-93
2022/08/28 00:54:25;;;;;;;5.20;4.45;;;;;;;19.58;100.00;98109.38;2608427;28;20064;-93
2022/08/28 00:55:42;;;;;;;7.10;4.47;;;;;;;19.59;100.00;98110.19;2606654;28;20499;-93
2022/08/28 00:56:59;;;;;;;6.25;4.05;;;;;;;19.49;100.00;98110.00;2608003;28;20503;-94
2022/08/28 00:58:15;;;;;;;7.00;4.65;;;;;;;19.45;100.00;98108.53;2606077;28;20149;-93
2022/08/28 00:59:30;;;;;;;6.75;4.15;;;;;;;19.32;100.00;98112.03;2608083;28;20053;-93
2022/08/28 01:00:46;;;;;;;7.93;4.25;;;;;;;19.31;100.00;98110.34;2606198;28;20530;-93
2022/08/28 01:02:04;;;;;;;6.63;4.57;;;;;;;19.29;100.00;98109.59;2607864;28;20655;-94
2022/08/28 01:03:20;;;;;;;8.23;4.50;;;;;;;19.44;100.00;98107.66;2606299;28;20133;-94
2022/08/28 01:04:36;;;;;;;5.10;3.78;;;;;;;19.44;100.00;98109.47;2607348;28;20076;-94
2022/08/28 01:05:52;;;;;;;7.22;4.50;;;;;;;19.37;100.00;98101.09;2605467;28;20051;-95
2022/08/28 01:07:11;;;;;;;4.63;4.15;;;;;;;19.42;100.00;98103.44;2607301;28;20411;-93
2022/08/28 01:08:28;;;;;;;6.90;4.20;;;;;;;19.37;100.00;98102.88;2605652;28;20076;-94
2022/08/28 01:09:47;;;;;;;5.78;4.15;;;;;;;19.31;100.00;98105.03;2606068;28;20076;-93
2022/08/28 01:11:06;;;;;;;6.70;4.00;;;;;;;19.32;100.00;98103.22;2606704;28;20135;-93
2022/08/28 01:12:27;;;;;;;7.70;4.38;;;;;;;19.41;100.00;98102.56;2606112;28;20432;-94
2022/08/28 01:13:45;;;;;;;10.15;4.95;;;;;;;19.47;100.00;98103.94;2605625;28;20597;-93
2022/08/28 01:15:09;;;;;;;10.00;4.75;;;;;;;19.45;100.00;98104.06;2606501;28;20053;-93
2022/08/28 01:16:25;;;;;;;6.55;4.05;;;;;;;19.36;100.00;98101.19;2605688;28;20056;-93
2022/08/28 01:17:45;;;;;;;6.30;4.22;;;;;;;19.26;100.00;98104.47;2608006;28;20048;-93
2022/08/28 01:19:06;;;;;;;6.97;4.28;;;;;;;19.26;100.00;98104.47;2607863;28;20046;-94
2022/08/28 01:20:27;;;;;;;5.63;4.03;;;;;;;19.30;100.00;98108.66;2609471;28;20071;-94
2022/08/28 01:22:06;;;;;;;7.88;3.60;;;;;;;19.34;100.00;98104.81;2608431;28;20053;-94
2022/08/28 01:23:37;;;;;;;8.68;4.43;;;;;;;19.43;100.00;98108.63;2609672;28;20059;-94
2022/08/28 01:24:56;;;;;;;5.18;4.43;;;;;;;19.30;100.00;98107.78;2608020;28;20052;-95
2022/08/28 01:26:12;;;;;;;8.95;4.35;;;;;;;19.38;100.00;98105.44;2609360;28;20128;-93
2022/08/28 01:27:28;;;;;;;12.30;4.30;;;;;;;19.41;100.00;98112.34;2608135;28;20048;-94
2022/08/28 01:28:44;;;;;;;5.75;4.20;;;;;;;19.39;100.00;98107.16;2609502;28;20052;-93
2022/08/28 01:30:00;;;;;;;5.75;4.05;;;;;;;19.40;100.00;98105.31;2608250;28;20064;-93
2022/08/28 01:31:16;;;;;;;6.60;4.20;;;;;;;19.25;100.00;98101.94;2609369;28;20049;-94
2022/08/28 01:32:38;;;;;;;5.50;3.83;;;;;;;19.29;100.00;98108.72;2607003;28;20049;-94
2022/08/28 01:33:53;;;;;;;;;;;;;;;19.25;100.00;98101.94;2609715;28;20049;-94
2022/08/28 01:35:13;;;;;;;6.05;3.75;;;;;;;19.27;100.00;98103.53;2607308;28;19939;-93
2022/08/28 01:36:31;;;;;;;6.10;4.40;;;;;;;19.15;100.00;98104.41;2608962;28;20593;-93
2022/08/28 01:37:46;;;;;;;7.10;4.75;;;;;;;19.18;100.00;98109.47;2607990;28;20537;-93
2022/08/28 01:39:16;;;;;;;7.65;4.18;;;;;;;19.20;100.00;98108.41;2609656;28;20111;-93
2022/08/28 01:40:39;;;;;;;11.30;4.25;;;;;;;19.24;100.00;98100.25;2606974;28;20049;-93
2022/08/28 01:41:55;;;;;;;5.25;3.90;;;;;;;19.10;100.00;98099.41;2609476;28;20136;-93
2022/08/28 01:43:14;;;;;;;10.07;4.13;;;;;;;19.20;100.00;98107.56;2607976;28;20045;-94
2022/08/28 01:44:30;;;;;;;4.82;4.00;;;;;;;19.18;100.00;98102.34;2608936;28;20065;-93
2022/08/28 01:45:49;;;;;;;6.90;4.13;;;;;;;19.27;100.00;98103.53;2608041;28;20064;-95
2022/08/28 01:47:05;;;;;;;7.45;3.97;;;;;;;19.11;100.00;98102.88;2609213;28;20357;-94
2022/08/28 01:48:24;;;;;;;5.57;3.88;;;;;;;19.20;100.00;98097.78;2607496;28;20061;-93
2022/08/28 01:49:40;;;;;;;6.75;3.88;;;;;;;19.19;100.00;98103.22;2608695;28;21166;-94
2022/08/28 01:50:55;;;;;;;5.80;3.65;;;;;;;19.23;100.00;98099.38;2608518;28;20053;-95
2022/08/28 01:52:11;;;;;;;6.38;3.67;;;;;;;19.14;100.00;98103.53;2607977;28;20049;-94
2022/08/28 01:53:28;;;;;;;5.85;3.80;;;;;;;19.08;100.00;98103.09;2609585;28;20111;-93
2022/08/28 01:54:44;;;;;;;4.72;4.13;;;;;;;19.14;100.00;98103.53;2607504;28;20056;-93
2022/08/28 01:56:03;;;;;;;5.40;3.30;;;;;;;19.14;100.00;98108.84;2608871;28;20045;-93
2022/08/28 01:57:18;;;;;;;7.03;3.70;;;;;;;19.14;100.00;98108.84;2607876;28;20198;-94
2022/08/28 01:58:34;;;;;;;7.80;3.88;;;;;;;19.17;100.00;98110.44;2609158;28;20053;-94
2022/08/28 01:59:51;;;;;;;5.35;3.35;;;;;;;19.25;100.00;98115.22;2608429;28;20048;-94
2022/08/28 02:01:15;;;;;;;6.20;3.70;;;;;;;19.25;100.00;98120.53;2608672;28;20045;-94
2022/08/28 02:02:31;;;;;;;5.15;3.50;;;;;;;19.33;100.00;98110.22;2608004;28;20053;-94
2022/08/28 02:03:48;;;;;;;6.72;3.80;;;;;;;19.32;100.00;98120.00;2608725;28;20526;-95
2022/08/28 02:05:04;;;;;;;7.88;3.67;;;;;;;19.34;100.00;98115.44;2607007;28;20074;-93
2022/08/28 02:06:19;;;;;;;5.70;4.03;;;;;;;19.41;100.00;98120.28;2609404;28;20102;-94
2022/08/28 02:07:35;;;;;;;5.60;3.80;;;;;;;19.28;100.00;98113.22;2607966;28;20076;-93
2022/08/28 02:08:54;;;;;;;4.28;3.50;;;;;;;19.28;100.00;98121.16;2608548;28;20609;-94
2022/08/28 02:10:10;;;;;;;5.43;3.80;;;;;;;19.20;100.00;98119.03;2607895;28;20419;-94
2022/08/28 02:11:29;;;;;;;8.55;4.00;;;;;;;19.27;100.00;98118.63;2609214;28;20075;-94
2022/08/28 02:12:44;;;;;;;5.78;3.95;;;;;;;19.16;100.00;98122.84;2607724;28;20049;-93
2022/08/28 02:14:01;;;;;;;4.43;3.40;;;;;;;19.15;100.00;98126.47;2609393;28;20080;-95
2022/08/28 02:15:16;;;;;;;6.50;3.85;;;;;;;19.22;100.00;98121.59;2607925;28;20053;-94
2022/08/28 02:16:32;;;;;;;6.93;3.47;;;;;;;19.34;100.00;98125.19;2609186;28;20053;-93
2022/08/28 02:17:48;;;;;;;5.65;3.67;;;;;;;19.36;100.00;98133.91;2608122;28;20049;-94
2022/08/28 02:19:03;;;;;;;4.90;3.47;;;;;;;19.34;100.00;98120.72;2609600;28;20488;-93
2022/08/28 02:20:19;;;;;;;6.05;3.70;;;;;;;19.37;100.00;98127.66;2607165;28;20076;-94
2022/08/28 02:21:35;;;;;;;7.78;3.75;;;;;;;19.31;100.00;98120.09;2610475;28;20059;-94
2022/08/28 02:22:50;;;;;;;6.72;3.42;;;;;;;19.42;100.00;98127.34;2607888;28;20048;-94
2022/08/28 02:24:06;;;;;;;5.70;3.72;;;;;;;19.40;100.00;98122.13;2608399;28;20487;-95
2022/08/28 02:25:22;;;;;;;4.95;3.78;;;;;;;19.38;100.00;98121.38;2609510;28;20045;-93
2022/08/28 02:26:38;;;;;;;5.10;3.53;;;;;;;19.26;100.00;98123.06;2608200;28;20053;-95
2022/08/28 02:27:54;;;;;;;5.75;3.78;;;;;;;19.34;100.00;98125.19;2609568;28;20041;-94
2022/08/28 02:29:11;;;;;;;5.90;3.50;;;;;;;19.37;100.00;98118.81;2607462;28;20075;-95
2022/08/28 02:30:27;;;;;;;6.13;3.67;;;;;;;19.38;100.00;98118.72;2597383;28;20046;-94
2022/08/28 02:31:43;;;;;;;5.35;3.40;;;;;;;19.40;100.00;98115.94;2602316;28;20572;-94
2022/08/28 02:32:58;;;;;;;4.65;3.58;;;;;;;19.38;100.00;98118.72;2609816;28;20114;-95
2022/08/28 02:34:14;;;;;;;6.45;3.53;;;;;;;19.37;100.00;98119.69;2608718;28;20139;-94
2022/08/28 02:35:30;;;;;;;5.65;3.70;;;;;;;19.34;100.00;98114.56;2610019;28;20659;-95
2022/08/28 02:36:46;;;;;;;3.88;3.47;;;;;;;19.22;100.00;98110.97;2608609;28;20052;-94
2022/08/28 02:38:02;;;;;;;6.55;3.40;;;;;;;19.23;100.00;98110.00;2610068;28;20091;-95
2022/08/28 02:39:18;;;;;;;5.07;3.55;;;;;;;19.13;100.00;98106.28;2608088;28;20052;-95
2022/08/28 02:40:33;;;;;;;5.13;3.83;;;;;;;19.17;100.00;98107.78;2610008;28;20064;-94
2022/08/28 02:41:49;;;;;;;5.57;3.53;;;;;;;19.23;100.00;98117.13;2608019;28;20053;-95
2022/08/28 02:43:05;;;;;;;5.78;3.33;;;;;;;19.09;100.00;98105.66;2609924;28;20064;-94
2022/08/28 02:44:20;;;;;;;3.63;3.17;;;;;;;19.23;100.00;98106.53;2608001;28;20056;-94
2022/08/28 02:45:36;;;;;;;4.95;3.15;;;;;;;19.18;100.00;98112.97;2609650;28;20083;-94
2022/08/28 02:46:52;;;;;;;3.80;3.20;;;;;;;19.14;100.00;98108.84;2607065;28;20493;-94
2022/08/28 02:48:07;;;;;;;5.88;3.72;;;;;;;19.24;100.00;98111.69;2608834;28;20061;-95
2022/08/28 02:49:23;;;;;;;4.53;3.28;;;;;;;19.17;100.00;98110.44;2608628;28;20381;-96
2022/08/28 02:50:38;;;;;;;4.82;3.22;;;;;;;19.25;100.00;98105.44;2607560;28;20331;-95
2022/08/28 02:51:55;;;;;;;3.85;3.10;;;;;;;19.20;100.00;98110.22;2609458;28;20049;-95
2022/08/28 02:53:11;;;;;;;5.88;3.58;;;;;;;19.31;100.00;98105.03;2608333;28;20053;-94
2022/08/28 02:54:26;;;;;;;5.88;3.30;;;;;;;19.30;100.00;98110.44;2608860;28;20060;-94
2022/08/28 02:55:42;;;;;;;8.77;3.50;;;;;;;19.25;100.00;98108.09;2607903;28;20144;-95
2022/08/28 02:56:57;;;;;;;7.03;3.60;;;;;;;19.25;100.00;98107.25;2609480;28;20049;-95
2022/08/28 02:58:13;;;;;;;5.30;3.45;;;;;;;19.26;100.00;98112.44;2608656;28;20057;-94
2022/08/28 02:59:29;;;;;;;6.22;3.35;;;;;;;19.25;100.00;98104.59;2608813;28;20075;-94
2022/08/28 03:00:44;;;;;;;4.28;3.55;;;;;;;19.21;100.00;98101.31;2607745;28;20351;-96
2022/08/28 03:02:02;;;;;;;4.72;3.55;;;;;;;19.09;100.00;98104.81;2609613;28;20106;-95
2022/08/28 03:03:19;;;;;;;5.88;3.35;;;;;;;19.14;100.00;98113.31;2607308;28;20152;-95
2022/08/28 03:04:36;;;;;;;5.85;3.30;;;;;;;19.19;100.00;98109.34;2609461;28;20040;-95
2022/08/28 03:05:52;;;;;;;8.48;3.85;;;;;;;19.19;100.00;98108.53;2606978;28;20356;-95
2022/08/28 03:07:08;;;;;;;6.70;3.75;;;;;;;19.09;100.00;98110.97;2609418;28;20048;-95
2022/08/28 03:08:25;;;;;;;5.57;3.50;;;;;;;19.08;100.00;98103.97;2606942;28;20052;-95
2022/08/28 03:09:42;;;;;;;5.40;3.53;;;;;;;19.13;100.00;98106.28;2608911;28;20100;-94
2022/08/28 03:10:58;;;;;;;10.25;3.60;;;;;;;19.12;100.00;98109.88;2607169;28;20056;-95
2022/08/28 03:12:15;;;;;;;7.55;3.58;;;;;;;19.22;100.00;98110.97;2609011;28;20051;-95
2022/08/28 03:13:31;;;;;;;5.80;3.60;;;;;;;19.20;100.00;98107.56;2607173;28;20045;-94
2022/08/28 03:14:46;;;;;;;5.38;3.70;;;;;;;19.27;100.00;98108.00;2609440;28;20079;-94
2022/08/28 03:16:03;;;;;;;4.80;3.47;;;;;;;19.27;100.00;98114.13;2607217;28;20128;-95
2022/08/28 03:17:20;;;;;;;7.35;3.38;;;;;;;19.23;100.00;98110.00;2608321;28;20088;-95
2022/08/28 03:18:37;;;;;;;6.53;4.10;;;;;;;19.26;100.00;98106.31;2607949;28;20107;-94
2022/08/28 03:19:52;;;;;;;6.60;3.50;;;;;;;19.29;100.00;98114.91;2607475;28;20060;-95
2022/08/28 03:21:09;;;;;;;5.97;3.83;;;;;;;19.21;100.00;98111.91;2608523;28;20052;-95
2022/08/28 03:23:59;;;;;;;6.05;3.95;;;;;;;19.27;100.00;98110.66;2606388;28;20053;-93
2022/08/28 03:25:16;;;;;;;5.00;3.53;;;;;;;19.23;100.00;98107.34;2606603;28;20053;-95
2022/08/28 03:26:31;;;;;;;5.97;3.50;;;;;;;19.22;100.00;98105.66;2608308;28;20044;-94
2022/08/28 03:27:48;;;;;;;8.43;4.00;;;;;;;19.20;100.00;98100.44;2607536;28;20099;-95
2022/08/28 03:29:03;;;;;;;7.57;3.72;;;;;;;19.14;100.00;98105.34;2608368;28;20353;-95
2022/08/28 03:30:20;;;;;;;6.35;3.85;;;;;;;19.12;100.00;98101.94;2607471;28;20060;-94
2022/08/28 03:31:37;;;;;;;4.45;3.67;;;;;;;19.10;100.00;98101.19;2608234;28;20566;-95
2022/08/28 03:32:53;;;;;;;8.35;3.72;;;;;;;19.13;100.00;98106.28;2606820;28;20140;-94
2022/08/28 03:34:09;;;;;;;7.47;3.78;;;;;;;19.19;100.00;98105.88;2608232;28;20045;-94
2022/08/28 03:35:24;;;;;;;5.35;3.80;;;;;;;19.16;100.00;98098.97;2607354;28;20049;-94
2022/08/28 03:36:40;;;;;;;4.50;3.83;;;;;;;19.17;100.00;98099.81;2608383;28;20404;-94
2022/08/28 03:37:56;;;;;;;5.32;3.70;;;;;;;19.16;100.00;98104.28;2607143;28;20053;-94
2022/08/28 03:39:12;;;;;;;5.00;3.63;;;;;;;19.11;100.00;98102.88;2607322;28;20498;-94
2022/08/28 03:40:28;;;;;;;5.18;3.63;;;;;;;19.16;100.00;98098.13;2605923;28;20052;-95
2022/08/28 03:41:44;;;;;;;8.40;3.90;;;;;;;19.18;100.00;98102.34;2608657;28;20053;-94
2022/08/28 03:42:59;;;;;;;5.18;3.72;;;;;;;19.18;100.00;98093.56;2606563;28;20380;-94
2022/08/28 03:44:15;;;;;;;6.18;3.80;;;;;;;19.19;100.00;98098.75;2608625;28;20045;-94
2022/08/28 03:45:30;;;;;;;4.95;3.65;;;;;;;19.15;100.00;98099.91;2606483;28;20837;-95
2022/08/28 03:46:46;;;;;;;5.65;4.00;;;;;;;19.16;100.00;98098.13;2607657;28;20045;-95
2022/08/28 03:48:03;;;;;;;4.22;3.63;;;;;;;19.16;100.00;98100.78;2606203;28;20458;-94
2022/08/28 03:49:18;;;;;;;6.05;3.63;;;;;;;19.18;100.00;98104.19;2608758;28;20102;-94
2022/08/28 03:50:34;;;;;;;8.07;3.72;;;;;;;19.18;100.00;98105.00;2606451;28;20128;-95
2022/08/28 03:51:50;;;;;;;6.28;4.00;;;;;;;19.19;100.00;98100.56;2606983;28;20045;-95
2022/08/28 03:53:05;;;;;;;4.28;3.63;;;;;;;19.19;100.00;98105.88;2607822;28;20052;-94
2022/08/28 03:54:21;;;;;;;5.10;4.03;;;;;;;19.14;100.00;98103.53;2606375;28;20052;-94
2022/08/28 03:55:40;;;;;;;7.53;4.35;;;;;;;19.13;100.00;98098.31;2608896;28;20084;-94
2022/08/28 03:56:56;;;;;;;6.78;4.20;;;;;;;19.14;100.00;98100.88;2606760;28;20582;-94
2022/08/28 03:58:11;;;;;;;5.38;3.72;;;;;;;19.13;100.00;98100.97;2608486;28;20072;-95
2022/08/28 03:59:27;;;;;;;7.40;3.90;;;;;;;19.08;100.00;98097.78;2607382;28;20499;-94
2022/08/28 04:00:44;;;;;;;5.43;3.58;;;;;;;19.06;100.00;98103.19;2608354;28;20113;-95
2022/08/28 04:02:00;;;;;;;3.80;3.35;;;;;;;19.03;100.00;98106.06;2606417;28;20091;-94
2022/08/28 04:03:16;;;;;;;4.68;3.85;;;;;;;19.02;100.00;98109.69;2608049;28;20049;-96
2022/08/28 04:04:33;;;;;;;6.22;3.53;;;;;;;18.98;100.00;98113.47;2606626;28;20091;-94
2022/08/28 04:05:48;;;;;;;5.28;3.70;;;;;;;18.99;100.00;98117.81;2608509;28;20084;-95
2022/08/28 04:07:04;;;;;;;6.60;3.63;;;;;;;19.02;100.00;98121.16;2606331;28;20056;-94
2022/08/28 04:08:21;;;;;;;5.97;3.53;;;;;;;19.02;100.00;98112.34;2607999;28;20499;-94
2022/08/28 04:09:36;;;;;;;6.05;4.03;;;;;;;19.02;100.00;98120.28;2606746;28;20411;-95
2022/08/28 04:10:53;;;;;;;5.03;4.03;;;;;;;18.85;100.00;98116.09;2607055;28;20121;-94
2022/08/28 04:12:09;;;;;;;5.97;4.00;;;;;;;18.95;100.00;98119.81;2606720;28;20084;-96
2022/08/28 04:13:26;;;;;;;10.57;4.15;;;;;;;18.98;100.00;98114.31;2606445;28;20045;-95
2022/08/28 04:14:42;;;;;;;6.75;4.35;;;;;;;18.90;100.00;98120.13;2605965;28;20357;-95
2022/08/28 04:16:09;;;;;;;6.72;4.00;;;;;;;18.87;100.00;98117.69;2606416;28;20049;-95
2022/08/28 04:17:25;;;;;;;6.40;3.63;;;;;;;18.99;100.00;98121.34;2604722;28;20041;-96
2022/08/28 04:18:42;;;;;;;5.93;3.85;;;;;;;19.01;100.00;98123.91;2607100;28;20041;-94
2022/08/28 04:19:57;;;;;;;5.75;4.43;;;;;;;19.01;100.00;98123.91;2605327;28;20056;-96
2022/08/28 04:21:19;;;;;;;7.03;4.00;;;;;;;18.97;100.00;98123.22;2607903;28;20056;-94
2022/08/28 04:22:36;;;;;;;5.45;4.00;;;;;;;18.92;100.00;98122.69;2605886;28;20061;-94
2022/08/28 04:23:52;;;;;;;6.50;3.45;;;;;;;18.89;100.00;98126.38;2607778;28;20084;-95
2022/08/28 04:25:08;;;;;;;5.45;4.03;;;;;;;18.94;100.00;98130.56;2606559;28;20171;-94
2022/08/28 04:26:25;;;;;;;4.50;3.90;;;;;;;18.92;100.00;98128.81;2606665;28;20045;-94
2022/08/28 04:27:41;;;;;;;6.78;3.95;;;;;;;18.92;100.00;98128.00;2606907;28;20083;-94
2022/08/28 04:28:57;;;;;;;5.80;3.83;;;;;;;18.95;100.00;98126.94;2606492;28;20431;-95
2022/08/28 04:30:12;;;;;;;5.28;4.05;;;;;;;18.88;100.00;98122.03;2608455;28;20053;-94
2022/08/28 04:31:28;;;;;;;5.30;3.80;;;;;;;18.95;100.00;98130.44;2606921;28;20488;-96
2022/08/28 04:32:44;;;;;;;6.65;3.97;;;;;;;18.92;100.00;98133.31;2607359;28;20053;-95
2022/08/28 04:34:02;;;;;;;7.43;3.90;;;;;;;18.94;100.00;98133.22;2605898;28;20049;-94
2022/08/28 04:35:17;;;;;;;5.07;4.18;;;;;;;18.97;100.00;98133.00;2607267;28;20045;-93
2022/08/28 04:36:34;;;;;;;5.25;3.83;;;;;;;18.92;100.00;98133.31;2606553;28;20044;-93
2022/08/28 04:37:50;;;;;;;5.47;3.97;;;;;;;18.97;100.00;98135.66;2607547;28;20053;-93
2022/08/28 04:39:07;;;;;;;5.25;3.65;;;;;;;19.02;100.00;98133.56;2605948;28;20408;-95
2022/08/28 04:40:23;;;;;;;7.80;3.70;;;;;;;19.05;100.00;98136.84;2607950;28;20069;-95
2022/08/28 04:41:39;;;;;;;5.78;3.95;;;;;;;19.08;100.00;98146.41;2606181;28;20103;-94
2022/08/28 04:42:54;;;;;;;4.88;3.35;;;;;;;19.08;100.00;98135.81;2607782;28;20068;-95
2022/08/28 04:44:10;;;;;;;5.38;3.97;;;;;;;19.08;100.00;98141.13;2605847;28;20411;-94
2022/08/28 04:45:25;;;;;;;9.75;4.30;;;;;;;19.09;100.00;98140.16;2607602;28;20045;-94
2022/08/28 04:46:41;;;;;;;8.93;4.03;;;;;;;19.10;100.00;98139.19;2606185;28;20056;-94
2022/08/28 04:47:57;;;;;;;4.22;3.47;;;;;;;19.04;100.00;98140.47;2607816;28;20055;-94
2022/08/28 04:49:14;;;;;;;6.00;3.80;;;;;;;18.97;100.00;98146.25;2606664;28;20048;-95
2022/08/28 04:50:30;;;;;;;5.20;3.50;;;;;;;19.02;100.00;98144.16;2606849;28;20049;-94
2022/08/28 04:51:45;;;;;;;5.88;3.42;;;;;;;19.05;100.00;98144.81;2605430;28;20040;-94
2022/08/28 04:53:01;;;;;;;4.68;3.20;;;;;;;18.98;100.00;98145.31;2606714;28;20057;-94
2022/08/28 04:54:16;;;;;;;5.10;3.05;;;;;;;19.00;100.00;98144.28;2606938;28;20960;-94
2022/08/28 04:55:32;;;;;;;3.75;2.90;;;;;;;19.10;100.00;98147.16;2606073;28;20053;-95
2022/08/28 04:56:47;;;;;;;9.10;3.75;;;;;;;19.03;100.00;98148.50;2607853;28;20179;-95
2022/08/28 04:58:03;;;;;;;5.00;3.58;;;;;;;19.10;100.00;98151.59;2604863;28;20060;-94
2022/08/28 04:59:19;;;;;;;6.43;3.65;;;;;;;19.10;100.00;98151.59;2607866;28;20056;-96
2022/08/28 05:00:37;;;;;;;5.88;3.28;;;;;;;19.09;100.00;98148.13;2605263;28;20052;-94
2022/08/28 05:01:53;;;;;;;6.70;3.58;;;;;;;19.19;100.00;98153.66;2607020;28;20140;-94
2022/08/28 05:03:10;;;;;;;3.42;3.13;;;;;;;19.23;100.00;98155.13;2605969;28;20045;-95
2022/08/28 05:04:25;;;;;;;4.25;2.83;;;;;;;19.21;100.00;98151.72;2606679;28;20045;-95
2022/08/28 05:05:49;;;;;;;5.90;3.38;;;;;;;19.24;100.00;98154.16;2605871;28;20076;-95
2022/08/28 05:07:04;;;;;;;3.75;3.17;;;;;;;19.26;100.00;98154.06;2607615;28;20135;-95
2022/08/28 05:08:23;;;;;;;5.03;2.67;;;;;;;19.24;100.00;98159.47;2605997;28;20056;-95
2022/08/28 05:09:38;;;;;;;4.80;2.95;;;;;;;19.02;100.00;98157.44;2606038;28;20076;-95
2022/08/28 05:10:55;;;;;;;4.90;3.08;;;;;;;19.14;100.00;98163.72;2598807;28;20110;-95
2022/08/28 05:12:15;;;;;;;8.10;3.00;;;;;;;19.11;100.00;98162.13;2607179;28;20558;-94
2022/08/28 05:13:31;;;;;;;4.60;3.10;;;;;;;19.10;100.00;98160.44;2605300;28;20526;-95
2022/08/28 05:14:48;;;;;;;3.53;2.67;;;;;;;19.20;100.00;98166.78;2607477;28;20099;-94
2022/08/28 05:16:04;;;;;;;4.22;3.05;;;;;;;19.22;100.00;98166.69;2605221;28;20049;-94
2022/08/28 05:17:19;;;;;;;5.07;3.08;;;;;;;19.22;100.00;98166.69;2606856;28;20112;-94
2022/08/28 05:18:35;;;;;;;4.82;3.20;;;;;;;19.21;100.00;98170.31;2605419;28;20060;-95
2022/08/28 05:19:51;;;;;;;4.65;3.03;;;;;;;19.25;100.00;98170.97;2607657;28;20077;-95
2022/08/28 05:21:20;;;;;;;5.75;2.85;;;;;;;19.18;100.00;98176.66;2606322;28;20057;-94
2022/08/28 05:22:35;;;;;;;4.75;2.88;;;;;;;19.13;100.00;98180.56;2607786;28;20064;-94
2022/08/28 05:23:55;;;;;;;5.25;3.08;;;;;;;19.07;100.00;98181.00;2605986;28;20041;-94
2022/08/28 05:25:10;;;;;;;5.03;3.13;;;;;;;19.10;100.00;98181.66;2608104;28;20852;-96
2022/08/28 05:26:27;;;;;;;3.35;2.33;;;;;;;19.01;100.00;98187.56;2606135;28;20053;-95
2022/08/28 05:27:42;;;;;;;3.72;2.47;;;;;;;19.05;100.00;98181.09;2607699;28;20114;-94
2022/08/28 05:28:59;;;;;;;3.65;2.85;;;;;;;19.04;100.00;98180.25;2606279;28;20159;-95
2022/08/28 05:30:14;;;;;;;5.15;3.17;;;;;;;19.19;100.00;98185.50;2605900;28;20052;-95
2022/08/28 05:31:31;;;;;;;4.32;2.53;;;;;;;19.15;100.00;98189.31;2607330;28;20126;-94
2022/08/28 05:32:47;;;;;;;6.30;3.00;;;;;;;19.13;100.00;98181.44;2607859;28;20069;-94
2022/08/28 05:34:03;;;;;;;5.35;2.40;;;;;;;19.08;100.00;98183.56;2608020;28;20143;-95
2022/08/28 05:35:19;;;;;;;3.72;2.70;;;;;;;19.04;100.00;98185.56;2605998;28;20045;-96
2022/08/28 05:36:36;;;;;;;7.10;2.65;;;;;;;19.18;100.00;98184.63;2607376;28;20049;-94
2022/08/28 05:37:52;;;;;;;4.32;2.60;;;;;;;19.22;100.00;98187.94;2605796;28;20044;-95
2022/08/28 05:39:09;;;;;;;5.75;2.88;;;;;;;19.15;100.00;98184.00;2607049;28;20500;-94
2022/08/28 05:40:25;;;;;;;5.22;2.53;;;;;;;19.15;100.00;98191.97;2605481;28;20567;-94
2022/08/28 05:41:43;;;;;;;3.42;2.20;;;;;;;19.19;100.00;98185.50;2607596;28;20045;-96
2022/08/28 05:42:58;;;;;;;3.53;2.05;;;;;;;19.17;100.00;98195.38;2606081;28;20064;-94
2022/08/28 05:44:15;;;;;;;3.58;2.67;;;;;;;19.23;100.00;98189.63;2607340;28;20082;-95
2022/08/28 05:45:31;;;;;;;2.97;2.25;;;;;;;19.25;100.00;98193.03;2606076;28;20104;-95
2022/08/28 05:46:47;;;;;;;4.88;2.30;;;;;;;19.22;100.00;98197.72;2607328;28;20049;-94
2022/08/28 05:48:02;;;;;;;3.08;2.10;;;;;;;19.27;100.00;98195.59;2605394;28;20076;-95
2022/08/28 05:49:18;;;;;;;5.57;2.50;;;;;;;19.34;100.00;98195.06;2607330;28;20053;-94
2022/08/28 05:50:37;;;;;;;3.80;2.50;;;;;;;19.10;100.00;98197.56;2605857;28;20056;-93
2022/08/28 05:51:53;;;;;;;5.20;2.55;;;;;;;19.24;100.00;98195.78;2606234;28;20029;-94
2022/08/28 05:53:08;;;;;;;3.28;2.17;;;;;;;19.22;100.00;98197.72;2605881;28;20139;-93
2022/08/28 05:54:24;;;;;;;4.13;2.20;;;;;;;19.01;100.00;98199.03;2607205;28;20049;-93
2022/08/28 05:55:39;;;;;;;4.82;2.60;;;;;;;19.16;100.00;98194.50;2605424;28;20053;-94
2022/08/28 05:56:55;;;;;;;3.28;2.40;;;;;;;19.11;100.00;98204.59;2606371;28;20070;-93
2022/08/28 05:58:31;;;;;;;3.90;2.58;;;;;;;19.23;100.00;98196.75;2606102;28;20041;-95
2022/08/28 05:59:46;;;;;;;2.60;2.10;;;;;;;19.29;100.00;98198.97;2606679;28;20056;-94
2022/08/28 06:01:09;;;;;;;5.90;2.38;;;;;;;19.32;100.00;98204.94;2605161;28;20075;-94
2022/08/28 06:02:26;;;;;;;;;;;;;;;19.31;100.00;98199.72;2607766;28;20045;-94